Terminal Aerodrome Forecast
Issued by NWS

Home | Current Version | Previous Version | Text Only | Print | Product List | Glossary On
Versions: 1 2 3 4 5 6 7 8 9 10 11 12 13 14 15 16 17 18 19 20
000
FTUS41 KBOX 050019 AAA
TAFFMH
TAF AMD
KFMH 050019Z 0500/0524 04019G26KT 5SM RA BR VCTS OVC006CB
     FM050300 04011G19KT 3SM -RADZ BR OVC006
     FM050800 03012G19KT 3SM -DZ BR VCSH OVC008
     FM051100 03013KT 3SM -RADZ BR OVC008
     FM051300 03013G26KT 1SM -SHRADZ BR OVC008=

USA.gov is the U.S. government's official web portal to all federal, state and local government web resources and services.